• Join FlightAware (Why Join?)
  • Login
  • US Flag 
03:52PM EDT


 

Airport Tracker/Info


-or-


 

Live Flight TrackerFlight Track Log ✈ AAY855 ✈ 16-Mar-2014 ✈ KSBN - KPIE

Flight Track Log - Related Links

Times and Time Zones

All times are in EDT time to prevent confusion due to time zone crossing. See the AAY855 flight status page for this flight to view local times or setup timezone preferences in your user account.

Time Position Orientation Groundspeed Altitude Reporting Facility
EDT Latitude Longitude Course Direction KTS MPH feet Rate Location/Type
06:26PM 41.6478 -86.1553 144° Southeast 217 250 3,300  Level Chicago Center
06:27PM 41.5944 -86.1042 144° Southeast 254 292 7,200 3,180 Climbing Chicago Center
06:28PM 41.5167 -86.0964 176° South 280 322 9,900 2,040 Climbing Chicago Center
06:29PM 41.4261 -86.0850 175° South 327 376 11,500 1,500 Climbing Chicago Center
06:30PM 41.3208 -86.0731 175° South 378 435 13,100 2,100 Climbing Chicago Center
06:31PM 41.1864 -86.0414 170° South 409 471 15,900 2,880 Climbing Chicago Center
06:32PM 41.0714 -86.0247 174° South 416 479 19,100 2,760 Climbing Chicago Center
06:33PM 40.9653 -86.0039 172° South 392 451 21,700 1,920 Climbing Chicago Center
06:34PM 40.8600 -85.9883 174° South 382 440 23,100 1,200 Climbing Chicago Center
06:35PM 40.7253 -85.9681 173° South 404 465 24,300 1,200 Climbing Chicago Center
06:36PM 40.6211 -85.9497 172° South 418 481 25,700 1,560 Climbing Chicago Center
06:37PM 40.5106 -85.9278 171° South 406 467 27,600 1,500 Climbing Chicago Center
06:38PM 40.3806 -85.9019 171° South 394 453 28,800 960 Climbing Chicago Center
06:39PM 40.2689 -85.8847 173° South 402 463 29,600 780 Climbing Chicago Center
06:41PM 40.1547 -85.8658 173° South 409 471 30,500 600 Climbing Chicago Center
06:42PM 40.0153 -85.8403 172° South 413 475 31,000 180 Climbing Indianapolis Center
06:43PM 39.8944 -85.8178 172° South 427 491 31,000  Level Indianapolis Center
06:44PM 39.7708 -85.7958 172° South 438 504 31,000  Level Indianapolis Center
06:45PM 39.6483 -85.7728 172° South 439 505 31,000 180 Level Indianapolis Center
06:46PM 39.5025 -85.7475 172° South 439 505 31,400 720 Climbing Indianapolis Center
06:47PM 39.3853 -85.7283 173° South 430 495 32,500 720 Climbing Indianapolis Center
06:48PM 39.2714 -85.7078 172° South 418 481 33,000 240 Climbing Indianapolis Center
06:49PM 39.1547 -85.6878 172° South 418 481 33,000  Level Indianapolis Center
06:50PM 39.0392 -85.6694 173° South 418 481 33,000  Level Indianapolis Center
06:51PM 38.9228 -85.6492 172° South 418 481 33,000  Level Indianapolis Center
06:52PM 38.7844 -85.6247 172° South 419 482 33,000  Level Indianapolis Center
06:53PM 38.6686 -85.6053 173° South 419 482 33,000  Level Indianapolis Center
06:54PM 38.5531 -85.5850 172° South 419 482 33,000  Level Indianapolis Center
06:55PM 38.4364 -85.5658 173° South 419 482 33,000  Level Indianapolis Center
06:56PM 38.3214 -85.5472 173° South 418 481 33,000  Level Indianapolis Center
06:57PM 38.2056 -85.5278 172° South 417 480 33,000  Level Indianapolis Center
06:58PM 38.0903 -85.5078 172° South 417 480 33,000  Level Indianapolis Center
06:59PM 37.9503 -85.4831 172° South 417 480 33,000  Level Indianapolis Center
07:00PM 37.8347 -85.4656 173° South 417 480 33,000  Level Indianapolis Center
07:01PM 37.7253 -85.4483 173° South 411 473 33,000  Level Indianapolis Center
07:02PM 37.6119 -85.4294 172° South 411 473 33,000  Level Indianapolis Center
07:04PM 37.5000 -85.4097 172° South 408 470 33,000  Level Indianapolis Center
07:05PM 37.3742 -85.3883 172° South 394 453 33,000  Level Indianapolis Center
07:06PM 37.2678 -85.3728 173° South 389 448 33,000  Level Indianapolis Center
07:07PM 37.1625 -85.3578 174° South 384 442 33,000  Level Indianapolis Center
07:08PM 37.0558 -85.3394 172° South 385 443 33,000  Level Indianapolis Center
07:09PM 36.9350 -85.3189 172° South 384 442 33,000  Level Indianapolis Center
07:10PM 36.8292 -85.3011 172° South 384 442 33,000  Level Indianapolis Center
07:11PM 36.7247 -85.2856 173° South 382 440 33,000  Level Indianapolis Center
07:12PM 36.6183 -85.2683 173° South 381 438 33,000  Level Indianapolis Center
07:13PM 36.5122 -85.2531 173° South 382 440 33,000  Level Indianapolis Center
07:14PM 36.4064 -85.2358 173° South 383 441 33,000  Level Indianapolis Center
07:15PM 36.2800 -85.2161 173° South 383 441 33,000  Level Indianapolis Center
07:16PM 36.1761 -85.1989 172° South 382 440 33,000  Level Indianapolis Center
07:17PM 36.0725 -85.1833 173° South 381 438 33,000  Level Indianapolis Center
07:18PM 35.9700 -85.1675 173° South 378 435 33,000  Level Indianapolis Center
07:19PM 35.8675 -85.1522 173° South 378 435 33,000  Level Indianapolis Center
07:20PM 35.7508 -85.1342 173° South 377 434 33,000  Level Indianapolis Center
07:21PM 35.6217 -85.1144 173° South 381 438 33,000  Level Atlanta Center
07:22PM 35.5217 -85.0978 172° South 369 425 33,000  Level Atlanta Center
07:23PM 35.4239 -85.0836 173° South 369 425 33,000  Level Atlanta Center
07:24PM 35.3197 -85.0672 173° South 369 425 33,000  Level Atlanta Center
07:25PM 35.2239 -85.0531 173° South 369 425 33,000  Level Atlanta Center
07:26PM 35.1281 -85.0367 172° South 364 419 33,000  Level Atlanta Center
07:27PM 35.0258 -85.0228 174° South 364 419 33,000  Level Atlanta Center
07:28PM 34.9278 -85.0092 174° South 364 419 33,000  Level Atlanta Center
07:29PM 34.8278 -84.9953 173° South 369 425 33,000  Level Atlanta Center
07:30PM 34.7256 -84.9789 172° South 369 425 33,000  Level Atlanta Center
07:31PM 34.6278 -84.9628 172° South 369 425 33,000  Level Atlanta Center
07:32PM 34.5236 -84.9464 173° South 374 430 33,000  Level Atlanta Center
07:33PM 34.4256 -84.9303 172° South 374 430 33,000  Level Atlanta Center
07:34PM 34.3214 -84.9167 174° South 369 425 33,000  Level Atlanta Center
07:35PM 34.2169 -84.9006 173° South 369 425 33,000  Level Atlanta Center
07:36PM 34.1128 -84.8869 174° South 369 425 33,000  Level Atlanta Center
07:37PM 34.0106 -84.8733 174° South 369 425 33,000  Level Atlanta Center
07:38PM 33.9064 -84.8597 174° South 369 425 33,000  Level Atlanta Center
07:39PM 33.8125 -84.8439 172° South 369 425 33,000  Level Atlanta Center
07:40PM 33.7000 -84.8253 172° South 369 425 33,000  Level Atlanta Center
07:41PM 33.5978 -84.8094 173° South 369 425 33,000  Level Atlanta Center
07:42PM 33.4933 -84.7986 175° South 374 430 33,000  Level Atlanta Center
07:43PM 33.4017 -84.7853 173° South 374 430 33,000  Level Atlanta Center
07:44PM 33.2975 -84.7694 173° South 374 430 33,000  Level Atlanta Center
07:45PM 33.1953 -84.7536 173° South 369 425 33,000  Level Atlanta Center
07:46PM 33.0908 -84.7381 173° South 369 425 33,000  Level Atlanta Center
07:47PM 32.9867 -84.7222 173° South 369 425 33,000  Level Atlanta Center
07:48PM 32.8803 -84.7092 174° South 374 430 33,000  Level Atlanta Center
07:49PM 32.7761 -84.6886 171° South 384 442 33,000  Level Atlanta Center
07:50PM 32.6656 -84.6731 173° South 394 453 33,000  Level Atlanta Center
07:51PM 32.5569 -84.6575 173° South 394 453 33,000  Level Atlanta Center
07:54PM 32.3008 -84.6206 173° South 405 466 33,000  Level Jacksonville Center
07:55PM 32.1883 -84.6036 173° South 405 466 33,000  Level Jacksonville Center
07:56PM 32.0758 -84.5867 173° South 410 472 33,000  Level Jacksonville Center
07:57PM 31.9614 -84.5700 173° South 410 472 33,000  Level Jacksonville Center
07:58PM 31.8486 -84.5556 174° South 410 472 33,000  Level Jacksonville Center
07:59PM 31.7319 -84.5414 174° South 415 478 33,000  Level Jacksonville Center
08:00PM 31.6153 -84.5247 173° South 420 483 33,000  Level Jacksonville Center
08:01PM 31.5006 -84.5056 172° South 420 483 33,000  Level Jacksonville Center
08:02PM 31.3839 -84.4889 173° South 426 490 33,000  Level Jacksonville Center
08:03PM 31.2631 -84.4722 173° South 426 490 33,000  Level Jacksonville Center
08:04PM 31.1442 -84.4558 173° South 431 496 33,000  Level Jacksonville Center
08:05PM 31.0233 -84.4392 173° South 431 496 33,000  Level Jacksonville Center
08:06PM 30.9025 -84.4250 174° South 436 502 33,000  Level Jacksonville Center
08:07PM 30.7817 -84.4064 172° South 436 502 33,000  Level Jacksonville Center
08:08PM 30.6586 -84.3897 173° South 442 509 33,000 -60 Level Jacksonville Center
08:09PM 30.5317 -84.3564 167° South 442 509 32,900  Descending Jacksonville Center
08:10PM 30.4156 -84.2825 151° Southeast 447 514 33,000  Climbing Jacksonville Center
08:11PM 30.3350 -84.1994 138° Southeast 458 527 32,900 -120 Descending Jacksonville Center
08:12PM 30.2317 -84.0850 136° Southeast 464 534 32,800 -540 Descending Jacksonville Center
08:13PM 30.1367 -83.9758 135° Southeast 470 541 31,900 -960 Descending Jacksonville Center
08:14PM 30.0394 -83.8714 137° Southeast 475 547 30,900 -540 Descending Jacksonville Center
08:15PM 29.9294 -83.7867 146° Southeast 475 547 30,900 -240 Level Jacksonville Center
08:16PM 29.7939 -83.7278 159° South 470 541 30,500 -720 Descending Jacksonville Center
08:17PM 29.6689 -83.6908 166° South 470 541 29,500 -960 Descending Jacksonville Center
08:18PM 29.5419 -83.6422 162° South 470 541 28,600 -960 Descending Jacksonville Center
08:19PM 29.4192 -83.5911 160° South 470 541 27,600 -1,020 Descending Jacksonville Center
08:20PM 29.3025 -83.5378 158° South 465 535 26,600 -1,020 Descending Jacksonville Center
08:21PM 29.1900 -83.4872 159° South 453 521 25,600 -1,020 Descending Jacksonville Center
08:22PM 29.0839 -83.4247 153° Southeast 436 502 24,600 -840 Descending Jacksonville Center
08:23PM 28.9797 -83.3578 151° Southeast 430 495 24,000 -1,200 Descending Jacksonville Center
08:24PM 28.8736 -83.2886 150° Southeast 430 495 22,200 -2,100 Descending Jacksonville Center
08:25PM 28.7694 -83.2242 152° Southeast 430 495 19,800 -2,520 Descending Jacksonville Center
08:26PM 28.6167 -83.1333 152° Southeast 398 458 15,800 -2,520 Descending Tampa TRACON
08:27PM 28.5167 -83.0667 150° Southeast 386 444 13,500 -1,860 Descending Tampa TRACON
08:28PM 28.4333 -83.0167 152° Southeast 362 417 12,100 -1,500 Descending Tampa TRACON
08:29PM 28.3500 -82.9500 145° Southeast 325 374 10,500 -1,500 Descending Tampa TRACON
08:30PM 28.3000 -82.9000 139° Southeast 286 329 9,100 -1,920 Descending Tampa TRACON
08:31PM 28.2333 -82.8333 139° Southeast 272 313 6,700 -2,340 Descending Tampa TRACON
08:32PM 28.1833 -82.7833 139° Southeast 250 288 4,500 -2,040 Descending Tampa TRACON
08:33PM 28.1333 -82.7333 139° Southeast 229 264 2,700 -960 Descending Tampa TRACON
08:34PM 28.0833 -82.7167 164° South 152 175 2,600 -240 Descending Tampa TRACON
08:35PM 28.0500 -82.7167 180° South 152 175 2,300 -540 Descending Tampa TRACON
08:36PM 28.0167 -82.7000 156° South 106 122 1,600 -660 Descending Tampa TRACON
08:37PM 27.9833 -82.7000 180° South 114 131 1,000 -600 Descending Tampa TRACON
08:38PM 27.9500 -82.7000 180° South 121 139 400 -600 Descending Tampa TRACON